»·PEaware :: LXJ2256 KPDX-KGPI

LXJ2256 :: KPDX-KGPI

FLIGHT INFORMATION

Flight Status: Arrived
Operator: Unknown
More flights by this operator :: More flights under this callsign
Pilot: Jamie M. (16133)
Aircraft: BOMBARDIER BD-100 CHALLENGER 300
(CL30)
More flights by this aircraft type
Origin: KPDX Portland Intl
United States
Destination: KGPI Glacier Park Intl
United States
More flights between these airports :: More routes between these airports
Route: +LAVAA6 YKM J136 GEG V448 OLIBY
File this flight plan on PilotEdge
Remarks:
Altitude:
(Current/Filed)
35,000ft
Speed:
(Current/Filed)
480kts
Departed: 17-Jul-18 01:16 PM
Arrived: 17-Jul-18 02:21 PM
Distance/Time
Traveled:
379nm/1:04
Distance/Time
To Go:
Arrived

Flight Plot

Page will automatically refresh every two minutes.

Flight plan parsing failed; only flown route is shown


Map Options




Map Legend


Flown Route
Filed Route
Departure Airport
Arrival Airport
Navaid (VOR, NDB)
Fix

Horizontal Profiles

Position Reports

Time Latitude Longitude Heading Altitude Ground
Speed
17-Jul-18 12:26 45.588288 -122.586007 210 36ft 0kts
17-Jul-18 12:27 45.588288 -122.586007 210 36ft 0kts
17-Jul-18 12:28 45.588698 -122.586965 117 36ft 0kts
17-Jul-18 12:29 45.588698 -122.586964 117 36ft 0kts
17-Jul-18 12:30 45.587851 -122.584520 209 36ft 0kts
17-Jul-18 12:31 45.587851 -122.584520 209 36ft 0kts
17-Jul-18 12:32 45.587851 -122.584520 209 36ft 0kts
17-Jul-18 12:33 45.587851 -122.584520 209 36ft 0kts
17-Jul-18 12:34 45.587851 -122.584520 209 36ft 0kts
17-Jul-18 12:35 45.587851 -122.584520 209 36ft 0kts
17-Jul-18 12:36 45.587851 -122.584520 209 36ft 0kts
17-Jul-18 12:37 45.587851 -122.584520 209 36ft 0kts
17-Jul-18 12:38 45.587851 -122.584520 209 36ft 0kts
17-Jul-18 12:39 45.587851 -122.584520 209 36ft 0kts
17-Jul-18 12:40 45.587851 -122.584520 209 36ft 0kts
17-Jul-18 12:41 45.587851 -122.584520 209 36ft 0kts
17-Jul-18 12:42 45.587851 -122.584520 209 36ft 0kts
17-Jul-18 12:43 45.587851 -122.584520 209 36ft 0kts
17-Jul-18 12:44 45.587851 -122.584520 209 36ft 0kts
17-Jul-18 12:45 45.587851 -122.584520 209 36ft 0kts
17-Jul-18 12:46 45.587851 -122.584520 209 36ft 0kts
17-Jul-18 12:47 45.587851 -122.584520 209 36ft 0kts
17-Jul-18 12:48 45.587851 -122.584520 209 36ft 0kts
17-Jul-18 12:49 45.587851 -122.584520 209 36ft 0kts
17-Jul-18 12:50 45.587851 -122.584520 209 36ft 0kts
17-Jul-18 12:51 45.587851 -122.584520 209 36ft 0kts
17-Jul-18 12:52 45.587851 -122.584520 209 36ft 0kts
17-Jul-18 12:53 45.587851 -122.584520 209 36ft 0kts
17-Jul-18 12:54 45.587851 -122.584520 209 36ft 0kts
17-Jul-18 12:55 45.587851 -122.584520 209 36ft 0kts
17-Jul-18 12:56 45.587851 -122.584520 209 36ft 0kts
17-Jul-18 12:57 45.587851 -122.584520 209 36ft 0kts
17-Jul-18 12:58 45.587851 -122.584520 209 36ft 0kts
17-Jul-18 12:59 45.587851 -122.584520 209 36ft 0kts
17-Jul-18 13:00 45.587851 -122.584520 209 36ft 0kts
17-Jul-18 13:01 45.587851 -122.584520 209 36ft 0kts
17-Jul-18 13:02 45.587851 -122.584520 209 36ft 0kts
17-Jul-18 13:03 45.587851 -122.584520 209 36ft 0kts
17-Jul-18 13:04 45.587851 -122.584520 209 36ft 0kts
17-Jul-18 13:05 45.587851 -122.584520 209 36ft 0kts
17-Jul-18 13:06 45.587847 -122.584523 209 36ft 0kts
17-Jul-18 13:07 45.588244 -122.584534 145 36ft 2kts
17-Jul-18 13:08 45.588377 -122.584748 119 36ft 0kts
17-Jul-18 13:09 45.588377 -122.584748 119 36ft 0kts
17-Jul-18 13:10 45.588092 -122.584001 118 36ft 5kts
17-Jul-18 13:11 45.587899 -122.581131 118 36ft 15kts
17-Jul-18 13:12 45.586218 -122.576787 118 36ft 13kts
17-Jul-18 13:13 45.583910 -122.570891 118 36ft 18kts
17-Jul-18 13:14 45.582750 -122.567310 54 36ft 0kts
17-Jul-18 13:15 45.582750 -122.567310 54 36ft 0kts
17-Jul-18 13:16 45.583420 -122.566828 357 36ft 8kts
17-Jul-18 13:17 45.594367 -122.593979 300 887ft 181kts
17-Jul-18 13:18 45.611997 -122.659701 286 4759ft 210kts
17-Jul-18 13:19 45.645962 -122.744359 300 8487ft 281kts
17-Jul-18 13:20 45.715458 -122.765147 20 12092ft 304kts
17-Jul-18 13:21 45.751772 -122.660482 87 16467ft 338kts
17-Jul-18 13:22 45.754393 -122.516395 90 19683ft 396kts
17-Jul-18 13:23 45.753672 -122.353361 91 22750ft 432kts
17-Jul-18 13:24 45.751653 -122.180335 92 25612ft 452kts
17-Jul-18 13:25 45.748969 -121.996838 93 28052ft 470kts
17-Jul-18 13:26 45.780421 -121.817554 54 29974ft 491kts
17-Jul-18 13:27 45.863864 -121.662323 48 32273ft 492kts
17-Jul-18 13:28 45.951130 -121.512468 47 34662ft 487kts
17-Jul-18 13:29 46.040150 -121.361073 47 34999ft 507kts
17-Jul-18 13:30 46.117567 -121.229060 48 34988ft 511kts
17-Jul-18 13:31 46.207928 -121.074190 48 34989ft 512kts
17-Jul-18 13:32 46.299282 -120.916798 47 34990ft 512kts
17-Jul-18 13:33 46.390413 -120.758917 47 34992ft 512kts
17-Jul-18 13:34 46.481372 -120.600400 47 34993ft 512kts
17-Jul-18 13:35 46.569638 -120.438915 57 34990ft 515kts
17-Jul-18 13:36 46.638735 -120.258799 60 34989ft 516kts
17-Jul-18 13:37 46.706611 -120.075433 60 34990ft 516kts
17-Jul-18 13:38 46.774131 -119.890962 60 34990ft 516kts
17-Jul-18 13:39 46.841073 -119.706673 60 34989ft 516kts
17-Jul-18 13:40 46.908105 -119.520899 60 35013ft 516kts
17-Jul-18 13:41 46.973153 -119.339340 62 35012ft 510kts
17-Jul-18 13:42 47.037829 -119.157534 63 35010ft 502kts
17-Jul-18 13:43 47.101005 -118.978656 62 35010ft 495kts
17-Jul-18 13:44 47.162259 -118.804110 62 35008ft 489kts
17-Jul-18 13:45 47.223751 -118.627764 62 35008ft 483kts
17-Jul-18 13:46 47.284392 -118.452673 62 35037ft 479kts
17-Jul-18 13:47 47.342750 -118.283049 63 35089ft 477kts
17-Jul-18 13:48 47.402212 -118.109073 63 35090ft 477kts
17-Jul-18 13:49 47.461756 -117.933688 63 35091ft 479kts
17-Jul-18 13:50 47.521106 -117.757677 63 35092ft 480kts
17-Jul-18 13:51 47.573925 -117.576453 72 35093ft 481kts
17-Jul-18 13:52 47.613579 -117.387759 73 34846ft 482kts
17-Jul-18 13:53 47.651844 -117.199538 73 32909ft 483kts
17-Jul-18 13:54 47.689754 -117.010236 73 30919ft 478kts
17-Jul-18 13:55 47.726913 -116.822994 73 28920ft 468kts
17-Jul-18 13:56 47.762842 -116.640176 73 26917ft 455kts
17-Jul-18 13:57 47.797465 -116.462295 73 24919ft 442kts
17-Jul-18 13:58 47.830182 -116.292667 73 22958ft 429kts
17-Jul-18 13:59 47.862260 -116.124840 74 20954ft 416kts
17-Jul-18 14:00 47.893054 -115.962346 74 18953ft 402kts
17-Jul-18 14:01 47.922615 -115.805005 74 16946ft 387kts
17-Jul-18 14:02 47.950749 -115.654011 74 14947ft 371kts
17-Jul-18 14:03 47.977260 -115.510592 74 13549ft 340kts
17-Jul-18 14:04 48.000951 -115.381456 74 12986ft 309kts
17-Jul-18 14:05 48.023266 -115.259014 74 13004ft 309kts
17-Jul-18 14:06 48.042372 -115.136800 92 12932ft 300kts
17-Jul-18 14:07 48.037014 -115.013520 94 12039ft 295kts
17-Jul-18 14:08 48.030542 -114.892887 95 11137ft 288kts
17-Jul-18 14:09 48.023852 -114.777013 95 10240ft 269kts
17-Jul-18 14:10 48.017468 -114.670349 96 9501ft 245kts
17-Jul-18 14:11 48.016672 -114.575896 55 8987ft 219kts
17-Jul-18 14:12 48.064062 -114.517646 36 8124ft 225kts
17-Jul-18 14:13 48.112584 -114.463945 35 7252ft 217kts
17-Jul-18 14:14 48.158472 -114.414978 35 6316ft 190kts
17-Jul-18 14:15 48.197090 -114.374275 35 5396ft 153kts
17-Jul-18 14:16 48.230741 -114.339036 36 4485ft 147kts
17-Jul-18 14:17 48.247275 -114.288782 78 3697ft 128kts
17-Jul-18 14:18 48.273099 -114.244078 39 3711ft 159kts
17-Jul-18 14:19 48.307895 -114.207791 39 3883ft 147kts
17-Jul-18 14:20 48.339662 -114.199325 264 3723ft 135kts
17-Jul-18 14:21 48.324004 -114.241291 212 3153ft 118kts
17-Jul-18 14:22 48.307194 -114.258745 214 2969ft 16kts
17-Jul-18 14:23 48.306154 -114.258350 128 2968ft 0kts
17-Jul-18 14:24 48.307643 -114.256393 34 2968ft 9kts
17-Jul-18 14:25 48.308870 -114.253553 35 2969ft 11kts
17-Jul-18 14:26 48.310119 -114.251309 166 2969ft 0kts
17-Jul-18 14:27 48.310120 -114.251309 166 2969ft 0kts
17-Jul-18 14:28 48.310120 -114.251309 166 2969ft 0kts
17-Jul-18 14:29 48.310120 -114.251309 166 2969ft 0kts
17-Jul-18 14:30 48.310120 -114.251309 166 2969ft 0kts
17-Jul-18 14:31 48.310120 -114.251309 166 2969ft 0kts
17-Jul-18 14:32 48.310120 -114.251309 166 2969ft 0kts
17-Jul-18 14:33 48.310120 -114.251309 166 2969ft 0kts
17-Jul-18 14:34 48.310120 -114.251309 166 2969ft 0kts

Navigation Log

Ident Type
Flight plan parsing failed, navigation log unavailable